Time;durP1;ratioP1;P1;durP2;ratioP2;P2;SDS_P1;SDS_P2;PMS_P1;PMS_P2;Temp;Humidity;BMP_temperature;BMP_pressure;BME280_temperature;BME280_humidity;BME280_pressure;Samples;Min_cycle;Max_cycle;Signal;HPM_P1;HPM_P2
2023/01/30 00:00:25;;;;;;;22.95;13.40;;;;;;;;;;5112890;28;20412;-84
2023/01/30 00:02:51;;;;;;;25.08;13.43;;;;;;;;;;5116866;27;20960;-84
2023/01/30 00:05:17;;;;;;;24.30;13.23;;;;;;;;;;5130139;27;20426;-84
2023/01/30 00:07:43;;;;;;;22.50;13.73;;;;;;;;;;5120775;27;20933;-84
2023/01/30 00:10:10;;;;;;;24.30;13.17;;;;;;;;;;5095724;28;20460;-85
2023/01/30 00:12:36;;;;;;;23.90;13.05;;;;;;;;;;5112872;27;20435;-85
2023/01/30 00:15:02;;;;;;;23.58;12.85;;;;;;;;;;5113375;27;20467;-85
2023/01/30 00:17:28;;;;;;;24.17;12.88;;;;;;;;;;5103019;27;20893;-85
2023/01/30 00:19:54;;;;;;;23.25;12.45;;;;;;;;;;5123302;27;20824;-84
2023/01/30 00:22:20;;;;;;;24.70;12.75;;;;;;;;;;5126297;27;20392;-84
2023/01/30 00:24:46;;;;;;;20.38;12.20;;;;;;;;;;5095717;28;20396;-85
2023/01/30 00:27:12;;;;;;;27.83;12.30;;;;;;;;;;5124179;27;20929;-84
2023/01/30 00:29:38;;;;;;;23.35;12.00;;;;;;;;;;5095531;28;20416;-85
2023/01/30 00:32:04;;;;;;;23.65;11.35;;;;;;;;;;5110219;27;20467;-85
2023/01/30 00:34:30;;;;;;;21.98;10.98;;;;;;;;;;5132872;27;20422;-86
2023/01/30 00:36:56;;;;;;;20.90;10.60;;;;;;;;;;5119852;27;20400;-85
2023/01/30 00:39:22;;;;;;;21.38;10.00;;;;;;;;;;5115502;27;20410;-86
2023/01/30 00:47:18;;;;;;;24.17;9.65;;;;;;;;;;5114251;27;20481;-86
2023/01/30 00:49:44;;;;;;;22.05;10.10;;;;;;;;;;5090627;28;20472;-85
2023/01/30 00:52:10;;;;;;;21.23;10.02;;;;;;;;;;5114570;27;20447;-86
2023/01/30 00:54:36;;;;;;;26.60;10.48;;;;;;;;;;5113860;27;20417;-85
2023/01/30 00:57:04;;;;;;;23.67;10.00;;;;;;;;;;5111139;28;20455;-86
2023/01/30 00:59:30;;;;;;;20.50;9.88;;;;;;;;;;5095766;28;20427;-86
2023/01/30 01:01:56;;;;;;;23.23;10.00;;;;;;;;;;5098671;27;20481;-86
2023/01/30 01:04:22;;;;;;;23.55;10.40;;;;;;;;;;5113193;27;20394;-85
2023/01/30 01:06:48;;;;;;;22.45;10.05;;;;;;;;;;5127974;27;20491;-87
2023/01/30 01:09:15;;;;;;;21.17;10.45;;;;;;;;;;5132144;27;20403;-86
2023/01/30 01:11:41;;;;;;;21.47;10.67;;;;;;;;;;5123313;27;20505;-86
2023/01/30 01:14:07;;;;;;;20.00;10.20;;;;;;;;;;5111570;27;20435;-87
2023/01/30 01:16:33;;;;;;;24.35;10.60;;;;;;;;;;5116692;27;20395;-86
2023/01/30 01:19:00;;;;;;;22.77;10.10;;;;;;;;;;5113881;27;20428;-87
2023/01/30 01:21:26;;;;;;;21.83;9.10;;;;;;;;;;5116226;27;20441;-86
2023/01/30 01:23:54;;;;;;;23.75;9.05;;;;;;;;;;5116786;27;20488;-87
2023/01/30 01:26:20;;;;;;;16.53;8.53;;;;;;;;;;5093815;28;20523;-85
2023/01/30 01:28:46;;;;;;;15.25;8.80;;;;;;;;;;5095363;28;20750;-85
2023/01/30 01:31:14;;;;;;;16.73;8.93;;;;;;;;;;5114982;27;20430;-85
2023/01/30 01:33:40;;;;;;;15.87;7.83;;;;;;;;;;5129937;27;20402;-85
2023/01/30 01:36:07;;;;;;;18.52;8.50;;;;;;;;;;5131082;27;20422;-84
2023/01/30 01:38:33;;;;;;;15.57;8.48;;;;;;;;;;5096319;28;20445;-86
2023/01/30 01:41:04;;;;;;;15.52;8.57;;;;;;;;;;5089898;27;20907;-85
2023/01/30 01:43:32;;;;;;;16.85;8.85;;;;;;;;;;5113355;28;20424;-85
2023/01/30 01:46:04;;;;;;;20.17;9.65;;;;;;;;;;5111219;28;20878;-86
2023/01/30 01:48:45;;;;;;;16.95;8.95;;;6.40;99.90;;;;;;5096630;28;20475;-85
2023/01/30 01:51:15;;;;;;;19.33;9.20;;;;;;;;;;5097689;28;20431;-84
2023/01/30 01:53:45;;;;;;;19.80;9.88;;;;;;;;;;5107606;28;20450;-85
2023/01/30 01:56:13;;;;;;;21.63;10.10;;;;;;;;;;5112974;28;20423;-86
2023/01/30 01:58:51;;;;;;;17.67;9.30;;;;;;;;;;5126177;28;20427;-86
2023/01/30 02:01:18;;;;;;;20.38;8.70;;;;;;;;;;5113993;27;20405;-85
2023/01/30 02:03:46;;;;;;;19.85;9.05;;;;;;;;;;5115063;28;20495;-85
2023/01/30 02:06:14;;;;;;;18.67;9.00;;;;;;;;;;5109926;28;22132;-84
2023/01/30 02:09:00;;;;;;;22.27;9.30;;;;;;;;;;5106336;28;20465;-85
2023/01/30 02:11:31;;;;;;;22.45;8.45;;;;;;;;;;5098112;28;20480;-86
2023/01/30 02:13:57;;;;;;;25.80;10.30;;;;;;;;;;5127216;27;20420;-85
2023/01/30 02:16:23;;;;;;;25.10;9.40;;;;;;;;;;5092891;28;20911;-85
2023/01/30 02:18:49;;;;;;;23.42;9.68;;;;;;;;;;5110662;28;20434;-85
2023/01/30 02:21:15;;;;;;;20.33;9.02;;;;;;;;;;5094250;28;20415;-84
2023/01/30 02:24:11;;;;;;;27.95;9.55;;;;;;;;;;5110713;28;20491;-85
2023/01/30 02:26:40;;;;;;;27.70;9.52;;;;;;;;;;5026772;28;20728;-85
2023/01/30 02:29:09;;;;;;;23.33;8.85;;;;;;;;;;5122075;28;20415;-86
2023/01/30 02:31:40;;;;;;;25.07;9.37;;;;;;;;;;5112385;28;20431;-86
2023/01/30 02:34:18;;;;;;;27.20;9.52;;;;;;;;;;5128146;27;20411;-85
2023/01/30 02:36:50;;;;;;;25.80;9.43;;;;;;;;;;5127458;27;20451;-85
2023/01/30 02:39:35;;;;;;;25.05;8.63;;;;;;;;;;5125676;27;20451;-85
2023/01/30 02:42:01;;;;;;;28.17;9.20;;;;;;;;;;5133847;27;20399;-85
2023/01/30 02:44:32;;;;;;;26.25;9.20;;;;;;;;;;5125006;27;20985;-85
2023/01/30 02:47:03;;;;;;;28.95;9.63;;;;;;;;;;5126986;27;20413;-84
2023/01/30 02:49:35;;;;;;;28.02;8.35;;;;;;;;;;5114368;28;20436;-85
2023/01/30 02:52:02;;;;;;;28.50;9.30;;;;;;;;;;5097135;28;20422;-83
2023/01/30 02:54:28;;;;;;;27.58;8.38;;;;;;;;;;5109428;27;20414;-84
2023/01/30 02:56:57;;;;;;;29.40;9.02;;;;;;;;;;5132936;27;20414;-83
2023/01/30 02:59:32;;;;;;;29.70;8.68;;;;;;;;;;5112320;27;20424;-84
2023/01/30 03:02:26;;;;;;;31.40;9.15;;;7.20;99.90;;;;;;5115733;27;20750;-83
2023/01/30 03:04:55;;;;;;;31.05;8.65;;;;;;;;;;5123714;27;20777;-84
2023/01/30 03:07:21;;;;;;;31.47;9.00;;;;;;;;;;5127153;27;20424;-84
2023/01/30 03:09:53;;;;;;;20.90;8.30;;;;;;;;;;5116377;27;20409;-84
2023/01/30 03:12:38;;;;;;;30.45;9.35;;;;;;;;;;5122338;27;20421;-84
2023/01/30 03:15:04;;;;;;;23.17;7.78;;;;;;;;;;5117168;27;20415;-83
2023/01/30 03:17:31;;;;;;;25.48;8.13;;;6.90;99.90;;;;;;5134498;27;20954;-85
2023/01/30 03:19:58;;;;;;;30.08;7.90;;;;;;;;;;5112644;27;20395;-84
2023/01/30 03:22:24;;;;;;;25.73;7.68;;;;;;;;;;5100863;28;20900;-84
2023/01/30 03:24:51;;;;;;;25.85;7.07;;;;;;;;;;5102627;28;20416;-84
2023/01/30 03:27:17;;;;;;;24.23;7.28;;;;;;;;;;5130536;27;20405;-84
2023/01/30 03:29:43;;;;;;;22.90;6.65;;;;;;;;;;5121100;27;20431;-86
2023/01/30 03:32:10;;;;;;;26.58;7.38;;;;;;;;;;5096863;27;20931;-87
2023/01/30 03:34:36;;;;;;;23.00;6.43;;;;;;;;;;5128574;27;20479;-86
2023/01/30 03:37:02;;;;;;;23.33;6.63;;;;;;;;;;5113829;27;20503;-86
2023/01/30 03:39:28;;;;;;;27.73;6.85;;;;;;;;;;5116181;27;20425;-84
2023/01/30 03:41:54;;;;;;;26.40;6.37;;;;;;;;;;5132745;27;20426;-85
2023/01/30 03:44:20;;;;;;;20.83;5.80;;;;;;;;;;5114875;27;20438;-85
2023/01/30 03:46:47;;;;;;;24.20;6.00;;;;;;;;;;5118743;27;21035;-84
2023/01/30 03:49:13;;;;;;;25.02;6.07;;;;;;;;;;5115446;27;20398;-84
2023/01/30 03:51:39;;;;;;;23.25;6.18;;;;;;;;;;5116443;27;20442;-85
2023/01/30 03:54:05;;;;;;;21.20;5.60;;;;;;;;;;5119279;27;20438;-85
2023/01/30 03:56:31;;;;;;;22.67;5.60;;;;;;;;;;5097814;28;20476;-83
2023/01/30 03:58:57;;;;;;;22.80;5.47;;;;;;;;;;5119460;27;20445;-84
2023/01/30 04:01:23;;;;;;;20.88;5.60;;;;;;;;;;5125472;27;20414;-85
2023/01/30 04:03:49;;;;;;;20.13;5.10;;;;;;;;;;5095513;28;20408;-83
2023/01/30 04:06:15;;;;;;;25.60;5.43;;;;;;;;;;5113164;27;20420;-84
2023/01/30 04:08:41;;;;;;;24.95;5.72;;;;;;;;;;5097874;27;20747;-82
2023/01/30 04:11:07;;;;;;;20.58;5.65;;;;;;;;;;5106278;27;20425;-84
2023/01/30 04:13:34;;;;;;;22.17;5.30;;;;;;;;;;5132869;27;20478;-83
2023/01/30 04:16:16;;;;;;;20.30;5.95;;;;;;;;;;5120534;27;20770;-84
2023/01/30 04:18:42;;;;;;;18.15;4.90;;;;;;;;;;5128280;27;20414;-82
2023/01/30 04:21:08;;;;;;;23.92;5.70;;;;;;;;;;5112844;27;20414;-84
2023/01/30 04:23:34;;;;;;;25.02;5.45;;;;;;;;;;5094165;28;20412;-83
2023/01/30 04:26:00;;;;;;;20.52;5.28;;;;;;;;;;5122234;27;20425;-84
2023/01/30 04:28:26;;;;;;;26.35;5.78;;;;;;;;;;5115567;27;20467;-83
2023/01/30 04:30:53;;;;;;;23.92;5.55;;;;;;;;;;5124188;27;20763;-83
2023/01/30 04:33:19;;;;;;;21.92;4.80;;;;;;;;;;5095130;28;20469;-83
2023/01/30 04:35:55;;;;;;;21.58;5.03;;;;;;;;;;5100166;27;20843;-83
2023/01/30 04:38:22;;;;;;;23.60;5.37;;;;;;;;;;5111695;28;20455;-84
2023/01/30 04:40:48;;;;;;;23.08;5.40;;;;;;;;;;5098493;27;20412;-83
2023/01/30 04:43:15;;;;;;;25.00;5.13;;;;;;;;;;5115335;27;20902;-86
2023/01/30 04:45:44;;;;;;;24.30;5.28;;;;;;;;;;5093999;28;20412;-84
2023/01/30 04:48:10;;;;;;;25.80;5.50;;;;;;;;;;5111663;27;20417;-85
2023/01/30 04:50:36;;;;;;;22.05;5.03;;;;;;;;;;5099783;27;20885;-84
2023/01/30 04:53:02;;;;;;;26.88;5.63;;;;;;;;;;5105137;27;20555;-83
2023/01/30 04:55:28;;;;;;;24.75;5.63;;;;;;;;;;5122694;27;20434;-85
2023/01/30 04:57:54;;;;;;;30.13;5.78;;;;;;;;;;5108618;27;20993;-84
2023/01/30 05:00:21;;;;;;;23.25;5.45;;;;;;;;;;5128164;27;20481;-83
2023/01/30 05:02:47;;;;;;;25.02;5.43;;;;;;;;;;5097501;27;20394;-84
2023/01/30 05:05:13;;;;;;;22.23;5.03;;;;;;;;;;5104254;28;20431;-84
2023/01/30 05:07:39;;;;;;;30.38;6.22;;;;;;;;;;5092218;28;20491;-84
2023/01/30 05:10:05;;;;;;;21.55;5.38;;;;;;;;;;5078164;28;20397;-83
2023/01/30 05:12:31;;;;;;;22.65;5.25;;;;;;;;;;5116845;27;20447;-85
2023/01/30 05:14:57;;;;;;;26.00;5.22;;;;;;;;;;5099519;27;21204;-84
2023/01/30 05:17:23;;;;;;;26.83;5.60;;;;;;;;;;5119808;27;20416;-84
2023/01/30 05:19:49;;;;;;;27.80;5.53;;;;;;;;;;5125776;27;20771;-84
2023/01/30 05:22:15;;;;;;;23.73;5.90;;;;;;;;;;5122955;27;20412;-85
2023/01/30 05:24:41;;;;;;;28.20;6.20;;;;;;;;;;5111937;28;20404;-84
2023/01/30 05:27:07;;;;;;;29.05;5.47;;;;;;;;;;5099282;28;20451;-84
2023/01/30 05:29:33;;;;;;;26.73;5.60;;;;;;;;;;5114802;27;20426;-85
2023/01/30 05:31:59;;;;;;;25.85;5.40;;;;;;;;;;5114162;28;20415;-82
2023/01/30 05:34:25;;;;;;;27.05;6.32;;;;;;;;;;5088560;28;20420;-82
2023/01/30 05:36:52;;;;;;;33.65;5.68;;;;;;;;;;5094333;28;20469;-84
2023/01/30 05:39:18;;;;;;;28.00;5.53;;;;;;;;;;5108488;27;20410;-83
2023/01/30 05:41:44;;;;;;;25.20;5.32;;;;;;;;;;5095490;28;20412;-82
2023/01/30 05:44:10;;;;;;;29.33;5.43;;;;;;;;;;5134954;28;20489;-85
2023/01/30 05:46:36;;;;;;;25.48;5.38;;;;;;;;;;5141217;28;20394;-85
2023/01/30 05:49:06;;;;;;;25.92;5.50;;;;;;;;;;5098308;28;20843;-84
2023/01/30 05:51:32;;;;;;;26.33;5.28;;;;;;;;;;5131375;28;20414;-83
2023/01/30 05:53:59;;;;;;;23.77;5.00;;;;;;;;;;5121062;28;20422;-85
2023/01/30 05:56:25;;;;;;;24.88;5.03;;;;;;;;;;5132061;28;20401;-83
2023/01/30 05:58:52;;;;;;;27.35;5.15;;;;;;;;;;5108597;28;20431;-83
2023/01/30 06:01:18;;;;;;;23.90;4.28;;;;;;;;;;5111676;28;20427;-83
2023/01/30 06:03:45;;;;;;;25.40;4.97;;;;;;;;;;5112638;28;20406;-83
2023/01/30 06:06:11;;;;;;;29.92;5.88;;;;;;;;;;5121968;28;20420;-84
2023/01/30 06:08:38;;;;;;;26.35;5.55;;;;;;;;;;5095103;28;20407;-84
2023/01/30 06:11:07;;;;;;;29.33;5.90;;;5.60;99.90;;;;;;5111905;27;20761;-84
2023/01/30 06:13:33;;;;;;;32.75;5.43;;;;;;;;;;5127543;27;20414;-83
2023/01/30 06:15:59;;;;;;;27.27;5.80;;;;;;;;;;5108376;28;20783;-85
2023/01/30 06:18:25;;;;;;;24.95;4.50;;;;;;;;;;5119671;27;20905;-84
2023/01/30 06:20:52;;;;;;;25.20;5.25;;;;;;;;;;5136019;27;20391;-84
2023/01/30 06:23:19;;;;;;;26.25;5.80;;;;;;;;;;5128709;27;20467;-84
2023/01/30 06:25:45;;;;;;;23.95;5.20;;;;;;;;;;5121540;27;20414;-83
2023/01/30 06:28:12;;;;;;;28.65;5.50;;;;;;;;;;5109543;27;20449;-84
2023/01/30 06:30:38;;;;;;;24.13;4.90;;;;;;;;;;5104770;27;20488;-86
2023/01/30 06:33:05;;;;;;;25.52;5.55;;;;;;;;;;5112630;28;20415;-85
2023/01/30 06:35:31;;;;;;;27.10;5.00;;;;;;;;;;5135793;27;20823;-86
2023/01/30 06:37:57;;;;;;;25.65;6.20;;;;;;;;;;5129429;27;20398;-86
2023/01/30 06:40:23;;;;;;;24.88;5.15;;;;;;;;;;5108641;28;20404;-85
2023/01/30 06:42:49;;;;;;;26.15;5.00;;;;;;;;;;5118116;27;20431;-85
2023/01/30 06:45:16;;;;;;;29.13;5.57;;;;;;;;;;5106569;28;20516;-86
2023/01/30 06:47:49;;;;;;;24.05;4.72;;;;;;;;;;5116127;27;20417;-85
2023/01/30 06:50:16;;;;;;;23.43;4.70;;;;;;;;;;5127509;27;20925;-84
2023/01/30 06:52:43;;;;;;;27.65;5.40;;;;;;;;;;5102639;27;20443;-85
2023/01/30 06:55:10;;;;;;;24.00;4.80;;;;;;;;;;5118810;27;20448;-83
2023/01/30 06:57:36;;;;;;;29.02;4.72;;;;;;;;;;5120736;27;20502;-84
2023/01/30 07:00:06;;;;;;;23.98;5.43;;;;;;;;;;5120829;27;20427;-83
2023/01/30 07:02:34;;;;;;;25.95;4.93;;;;;;;;;;5113943;28;20434;-83
2023/01/30 07:05:04;;;;;;;27.55;5.15;;;;;;;;;;5106165;27;20765;-82
2023/01/30 07:07:30;;;;;;;23.75;4.93;;;;;;;;;;5111578;27;20422;-78
2023/01/30 07:09:57;;;;;;;25.42;4.55;;;;;;;;;;5115364;27;20919;-78
2023/01/30 07:12:24;;;;;;;23.35;5.00;;;;;;;;;;5114172;27;20486;-76
2023/01/30 07:14:51;;;;;;;24.88;5.38;;;;;;;;;;5095269;27;20430;-77
2023/01/30 07:17:17;;;;;;;29.08;6.15;;;;;;;;;;5129403;27;20481;-77
2023/01/30 07:19:44;;;;;;;32.28;6.13;;;;;;;;;;5111205;27;20459;-77
2023/01/30 07:22:10;;;;;;;28.63;6.07;;;;;;;;;;5096028;28;20484;-78
2023/01/30 07:24:37;;;;;;;26.27;5.72;;;;;;;;;;5114181;27;20419;-78
2023/01/30 07:27:03;;;;;;;25.17;5.35;;;;;;;;;;5112168;27;20414;-78
2023/01/30 07:29:29;;;;;;;29.75;5.32;;;;;;;;;;5098727;27;20431;-78
2023/01/30 07:31:55;;;;;;;32.47;6.07;;;;;;;;;;5108140;27;20418;-80
2023/01/30 07:34:21;;;;;;;28.97;5.77;;;;;;;;;;5106906;27;20535;-78
2023/01/30 07:36:47;;;;;;;29.50;5.90;;;;;;;;;;5133545;27;20537;-78
2023/01/30 07:39:13;;;;;;;22.42;5.10;;;;;;;;;;5124268;27;20756;-77
2023/01/30 07:41:40;;;;;;;30.33;5.30;;;;;;;;;;5100504;27;20412;-78
2023/01/30 07:44:06;;;;;;;26.83;5.10;;;;;;;;;;5107894;27;20488;-78
2023/01/30 07:46:34;;;;;;;29.02;5.35;;;;;;;;;;5097117;27;20967;-78
2023/01/30 07:49:04;;;;;;;27.88;5.60;;;;;;;;;;5097329;27;20759;-77
2023/01/30 07:51:30;;;;;;;29.10;5.15;;;;;;;;;;5122511;27;20418;-78
2023/01/30 07:53:56;;;;;;;24.80;5.63;;;;;;;;;;5109535;27;20543;-78
2023/01/30 07:56:22;;;;;;;22.83;5.28;;;;;;;;;;5125968;27;20786;-78
2023/01/30 07:58:48;;;;;;;28.80;5.30;;;;;;;;;;5126502;27;20543;-77
2023/01/30 08:01:15;;;;;;;23.80;4.97;;;;;;;;;;5098142;27;20412;-78
2023/01/30 08:03:42;;;;;;;24.63;4.90;;;;;;;;;;5098541;27;20760;-78
2023/01/30 08:06:08;;;;;;;28.90;5.23;;;;;;;;;;5107147;27;20446;-78
2023/01/30 08:08:35;;;;;;;27.63;5.47;;;;;;;;;;5109107;27;20493;-78
2023/01/30 08:11:01;;;;;;;26.27;5.27;;;;;;;;;;5113803;27;20427;-78
2023/01/30 08:13:27;;;;;;;27.17;5.20;;;;;;;;;;5114376;27;20780;-78
2023/01/30 08:15:53;;;;;;;25.07;5.40;;;;;;;;;;5119371;27;20491;-77
2023/01/30 08:18:19;;;;;;;29.90;6.18;;;;;;;;;;5116962;27;20427;-78
2023/01/30 08:20:45;;;;;;;29.48;6.20;;;;;;;;;;5096372;28;20780;-78
2023/01/30 08:23:11;;;;;;;32.47;5.60;;;;;;;;;;5110427;27;20450;-78
2023/01/30 08:25:37;;;;;;;29.52;6.20;;;;;;;;;;5105415;27;20428;-78
2023/01/30 08:28:04;;;;;;;24.13;5.30;;;;;;;;;;5110917;27;20414;-78
2023/01/30 08:30:30;;;;;;;30.33;5.82;;;;;;;;;;5113608;27;20465;-78
2023/01/30 08:32:57;;;;;;;28.67;5.95;;;;;;;;;;5095666;27;20422;-77
2023/01/30 08:35:23;;;;;;;24.45;4.80;;;;;;;;;;5126695;27;20919;-78
2023/01/30 08:37:49;;;;;;;30.20;6.10;;;;;;;;;;5084166;27;20416;-78
2023/01/30 08:40:16;;;;;;;28.58;6.15;;;;;;;;;;5097979;27;20422;-77
2023/01/30 08:42:45;;;;;;;29.65;6.03;;;;;;;;;;5096957;27;20466;-78
2023/01/30 08:45:11;;;;;;;30.52;5.50;;;;;;;;;;5099440;28;20418;-77
2023/01/30 08:47:37;;;;;;;30.07;6.30;;;;;;;;;;5111150;28;20412;-78
2023/01/30 08:50:04;;;;;;;27.30;6.38;;;;;;;;;;5096462;27;20528;-78
2023/01/30 08:52:32;;;;;;;27.05;5.65;;;;;;;;;;5103410;28;20408;-80
2023/01/30 08:54:58;;;;;;;24.70;6.65;;;;;;;;;;5094750;28;20427;-79
2023/01/30 08:57:24;;;;;;;29.08;5.88;;;;;;;;;;5095109;27;20818;-80
2023/01/30 08:59:51;;;;;;;28.77;5.57;;;;;;;;;;5102471;27;20468;-79
2023/01/30 09:02:19;;;;;;;26.87;5.50;;;;;;;;;;5098973;27;20444;-79
2023/01/30 09:04:45;;;;;;;28.42;5.53;;;;;;;;;;5112404;27;20445;-79
2023/01/30 09:07:14;;;;;;;20.37;5.33;;;;;;;;;;5091892;27;20431;-78
2023/01/30 09:09:40;;;;;;;23.55;5.72;;;;;;;;;;5091229;27;20412;-79
2023/01/30 09:12:06;;;;;;;27.52;6.00;;;;;;;;;;5098106;28;20424;-79
2023/01/30 09:14:32;;;;;;;25.95;5.32;;;;;;;;;;5109851;27;20904;-78
2023/01/30 09:16:59;;;;;;;25.10;5.70;;;;;;;;;;5100410;27;20412;-79
2023/01/30 09:19:26;;;;;;;24.30;5.20;;;;;;;;;;5096906;27;21021;-78
2023/01/30 09:21:52;;;;;;;26.90;5.93;;;;;;;;;;5098112;28;20503;-78
2023/01/30 09:24:19;;;;;;;27.17;5.63;;;;;;;;;;5115641;27;20806;-78
2023/01/30 09:26:45;;;;;;;30.70;5.10;;;;;;;;;;5101085;27;20769;-79
2023/01/30 09:29:11;;;;;;;23.40;5.35;;;;;;;;;;5115067;27;20907;-78
2023/01/30 09:31:38;;;;;;;25.83;5.70;;;;;;;;;;5110911;27;20430;-79
2023/01/30 09:34:04;;;;;;;26.95;5.25;;;;;;;;;;5107392;28;20909;-79
2023/01/30 09:36:30;;;;;;;28.20;5.90;;;;;;;;;;5098686;28;20934;-77
2023/01/30 09:38:56;;;;;;;28.15;6.03;;;;;;;;;;5094080;28;20408;-78
2023/01/30 09:41:42;;;;;;;28.35;6.68;;;7.20;99.90;;;;;;5095933;28;20941;-78
2023/01/30 09:44:21;;;;;;;36.25;6.60;;;;;;;;;;5110473;28;20420;-80
2023/01/30 09:46:55;;;;;;;34.15;7.63;;;;;;;;;;5096637;28;20414;-79
2023/01/30 09:49:21;;;;;;;32.63;7.38;;;;;;;;;;5097377;28;20419;-79
2023/01/30 09:51:50;;;;;;;35.63;6.47;;;;;;;;;;5117319;27;20417;-79
2023/01/30 09:54:23;;;;;;;34.05;7.32;;;;;;;;;;5114280;28;20412;-80
2023/01/30 09:57:09;;;;;;;30.77;6.80;;;;;;;;;;5111328;27;20783;-79
2023/01/30 09:59:43;;;;;;;30.20;6.38;;;;;;;;;;5092014;28;20447;-80
2023/01/30 10:02:16;;;;;;;32.53;6.10;;;;;;;;;;5109214;28;20416;-77
2023/01/30 10:04:45;;;;;;;31.35;6.57;;;;;;;;;;5122031;28;20414;-79
2023/01/30 10:07:19;;;;;;;31.48;7.22;;;;;;;;;;5124450;27;20765;-78
2023/01/30 10:09:45;;;;;;;30.95;7.00;;;;;;;;;;5102163;28;20463;-78
2023/01/30 10:12:22;;;;;;;31.48;6.85;;;;;;;;;;5112168;28;20418;-78
2023/01/30 10:14:51;;;;;;;27.15;5.50;;;;;;;;;;5124614;28;20439;-77
2023/01/30 10:17:36;;;;;;;27.65;5.82;;;;;;;;;;5123742;27;20420;-78
2023/01/30 10:20:02;;;;;;;25.52;4.85;;;;;;;;;;5103617;28;20810;-77
2023/01/30 10:22:33;;;;;;;27.13;6.25;;;;;;;;;;5107154;28;20410;-79
2023/01/30 10:25:18;;;;;;;26.77;5.55;;;;;;;;;;5113551;28;20468;-78
2023/01/30 10:27:57;;;;;;;28.75;6.05;;;;;;;;;;5107032;28;20416;-79
2023/01/30 10:30:23;;;;;;;29.42;6.13;;;;;;;;;;5122662;27;20414;-79
2023/01/30 10:33:03;;;;;;;28.13;6.10;;;;;;;;;;5117366;28;20414;-79
2023/01/30 10:35:31;;;;;;;28.52;5.75;;;;;;;;;;5123582;28;20416;-79
2023/01/30 10:38:24;;;;;;;33.33;7.38;;;;;;;;;;5119406;27;20507;-82
2023/01/30 10:40:58;;;;;;;22.13;5.15;;;;;;;;;;5104008;28;20408;-81
2023/01/30 10:43:36;;;;;;;14.88;3.88;;;;;;;;;;5100836;28;20418;-80
2023/01/30 10:46:10;;;;;;;15.90;3.35;;;;;;;;;;5109161;28;20426;-79
2023/01/30 10:48:42;;;;;;;16.02;3.63;;;;;;;;;;5111701;28;20815;-79
2023/01/30 10:51:23;;;;;;;17.57;3.30;;;;;;;;;;5114804;28;20475;-79
2023/01/30 10:53:53;;;;;;;13.30;2.67;;;;;;;;;;5120241;27;20412;-79
2023/01/30 10:56:46;;;;;;;17.13;3.38;;;;;;;;;;5116429;27;20425;-79
2023/01/30 10:59:33;;;;;;;25.08;4.40;;;;;;;;;;5115510;27;20414;-79
2023/01/30 11:02:06;;;;;;;25.60;4.82;;;;;;;;;;5118389;27;20568;-79
2023/01/30 11:04:38;;;;;;;21.95;3.88;;;;;;;;;;5115277;27;20507;-79
2023/01/30 11:07:05;;;;;;;19.50;4.03;;;;;;;;;;5128038;27;20412;-78
2023/01/30 11:09:42;;;;;;;19.33;4.38;;;;;;;;;;5115454;27;20934;-78
2023/01/30 11:12:08;;;;;;;21.58;4.35;;;;;;;;;;5119352;27;20422;-78
2023/01/30 11:14:50;;;;;;;16.07;3.60;;;;;;;;;;5119414;27;20423;-78
2023/01/30 11:17:17;;;;;;;15.68;3.80;;;;;;;;;;5107076;27;20497;-78
2023/01/30 11:19:44;;;;;;;15.13;3.70;;;;;;;;;;5116851;27;20423;-78
2023/01/30 11:22:12;;;;;;;19.35;4.10;;;;;;;;;;5096456;28;20468;-78
2023/01/30 11:24:41;;;;;;;18.02;3.55;;;;;;;;;;5113267;27;20426;-78
2023/01/30 11:27:10;;;;;;;15.98;3.65;;;;;;;;;;5119470;27;20411;-78
2023/01/30 11:29:38;;;;;;;19.50;4.10;;;;;;;;;;5105240;27;20410;-80
2023/01/30 11:32:26;;;;;;;19.50;4.20;;;;;;;;;;5098270;28;20423;-89
2023/01/30 11:35:07;;;;;;;19.35;4.60;;;;;;;;;;5122248;27;20412;-86
2023/01/30 11:37:33;;;;;;;17.38;3.50;;;;;;;;;;5102170;28;20465;-85
2023/01/30 11:39:59;;;;;;;18.75;3.95;;;;;;;;;;5108904;28;20413;-85
2023/01/30 11:42:30;;;;;;;14.90;3.83;;;;;;;;;;5092080;27;20442;-84
2023/01/30 11:44:57;;;;;;;14.07;3.88;;;;;;;;;;5109959;28;20899;-85
2023/01/30 11:47:25;;;;;;;15.00;3.20;;;;;;;;;;5115190;27;20439;-84
2023/01/30 11:49:54;;;;;;;13.13;2.58;;;;;;;;;;5109430;27;20414;-84
2023/01/30 11:52:24;;;;;;;11.70;2.60;;;;;;;;;;5107660;27;20515;-85
2023/01/30 11:54:51;;;;;;;12.25;2.80;;;;;;;;;;5114110;27;20423;-84
2023/01/30 11:57:18;;;;;;;16.33;3.30;;;;;;;;;;5088171;28;20408;-84
2023/01/30 11:59:44;;;;;;;11.00;2.55;;;;;;;;;;5103308;28;20408;-84
2023/01/30 12:02:11;;;;;;;13.63;2.65;;;;;;;;;;5099324;27;20477;-84
2023/01/30 12:04:37;;;;;;;14.70;3.17;;;;;;;;;;5115472;27;20417;-84
2023/01/30 12:07:08;;;;;;;16.33;3.83;;;;;;;;;;5112260;27;20410;-84
2023/01/30 12:09:36;;;;;;;13.43;3.40;;;;;;;;;;5119452;27;20473;-84
2023/01/30 12:12:04;;;;;;;16.97;3.30;;;;;;;;;;5107997;27;20495;-85
2023/01/30 12:14:47;;;;;;;18.80;4.22;;;;;;;;;;5107320;27;20441;-84
2023/01/30 12:17:25;;;;;;;17.98;4.05;;;;;;;;;;5104310;28;20404;-79
2023/01/30 12:19:56;;;;;;;23.42;4.50;;;;;;;;;;5119765;27;20440;-80
2023/01/30 12:22:28;;;;;;;18.27;4.07;;;;;;;;;;5126050;27;20424;-80
2023/01/30 12:24:58;;;;;;;18.58;4.07;;;;;;;;;;5118805;27;20420;-79
2023/01/30 12:27:30;;;;;;;17.15;3.42;;;;;;;;;;5094355;27;20915;-80
2023/01/30 12:29:59;;;;;;;20.85;4.53;;;;;;;;;;5103295;27;20852;-80
2023/01/30 12:32:27;;;;;;;20.35;4.90;;;;;;;;;;5114753;27;20507;-80
2023/01/30 12:34:54;;;;;;;20.95;4.18;;;;;;;;;;5107267;27;20411;-80
2023/01/30 12:37:27;;;;;;;17.45;4.30;;;;;;;;;;5099550;28;20416;-79
2023/01/30 12:40:02;;;;;;;17.90;4.45;;;;;;;;;;5121858;27;20511;-79
2023/01/30 12:42:40;;;;;;;19.17;3.90;;;;;;;;;;5113604;27;20404;-80
2023/01/30 12:45:06;;;;;;;17.25;3.97;;;;;;;;;;5099817;27;20459;-80
2023/01/30 12:47:35;;;;;;;21.75;3.92;;;;;;;;;;5103511;27;20473;-80
2023/01/30 12:50:01;;;;;;;18.73;4.00;;;;;;;;;;5092413;27;20423;-80
2023/01/30 12:52:40;;;;;;;22.58;4.38;;;;;;;;;;5128594;27;20414;-80
2023/01/30 12:55:15;;;;;;;19.35;4.47;;;;;;;;;;5104605;27;20423;-80
2023/01/30 12:57:45;;;;;;;16.45;3.70;;;;;;;;;;5104456;27;20479;-81
2023/01/30 13:00:26;;;;;;;23.48;4.78;;;;;;;;;;5116840;27;20481;-80
2023/01/30 13:03:05;;;;;;;18.02;3.90;;;;;;;;;;5105322;27;20445;-81
2023/01/30 13:05:40;;;;;;;18.00;4.00;;;;;;;;;;5098427;27;20502;-80
2023/01/30 13:08:22;;;;;;;18.60;4.47;;;;;;;;;;5107991;28;20412;-79
2023/01/30 13:11:04;;;;;;;22.52;4.65;;;;;;;;;;5105540;27;20415;-80
2023/01/30 13:13:34;;;;;;;17.47;4.70;;;;;;;;;;5121528;27;20488;-80
2023/01/30 13:16:00;;;;;;;25.83;5.18;;;;;;;;;;5098849;27;20778;-80
2023/01/30 13:18:47;;;;;;;20.25;5.53;;;;;;;;;;5116142;27;20446;-86
2023/01/30 13:21:16;;;;;;;23.77;4.60;;;;;;;;;;5095380;27;20419;-85
2023/01/30 13:23:43;;;;;;;23.92;5.50;;;;;;;;;;5098885;28;20404;-85
2023/01/30 13:26:14;;;;;;;26.75;6.38;;;;;;;;;;5095338;28;20412;-85
2023/01/30 13:28:45;;;;;;;27.30;5.80;;;;;;;;;;5100575;28;20422;-87
2023/01/30 13:31:13;;;;;;;27.75;5.45;;;;;;;;;;5102171;27;20411;-85
2023/01/30 13:33:41;;;;;;;28.42;5.63;;;;;;;;;;5101472;28;20392;-86
2023/01/30 13:36:10;;;;;;;30.40;6.20;;;;;;;;;;5109470;27;20414;-84
2023/01/30 13:38:40;;;;;;;25.05;6.45;;;;;;;;;;5098608;28;20488;-85
2023/01/30 13:41:09;;;;;;;29.60;6.15;;;;;;;;;;5108324;28;20424;-83
2023/01/30 13:43:37;;;;;;;31.15;6.35;;;;;;;;;;5103596;28;20428;-84
2023/01/30 13:46:06;;;;;;;35.42;6.20;;;;;;;;;;5114507;27;20402;-84
2023/01/30 13:48:42;;;;;;;30.83;6.43;;;;;;;;;;5105719;28;20412;-85
2023/01/30 13:51:11;;;;;;;30.00;6.63;;;;;;;;;;5119494;27;20404;-84
2023/01/30 13:53:43;;;;;;;34.75;7.00;;;;;;;;;;5131398;27;20415;-84
2023/01/30 13:56:18;;;;;;;30.03;6.30;;;;;;;;;;5113811;28;20425;-85
2023/01/30 13:58:55;;;;;;;28.42;5.82;;;;;;;;;;5111512;28;20503;-84
2023/01/30 14:01:22;;;;;;;31.25;6.53;;;;;;;;;;5099250;28;20485;-84
2023/01/30 14:03:48;;;;;;;28.38;6.38;;;;;;;;;;5085016;28;20423;-84
2023/01/30 14:06:24;;;;;;;30.73;6.03;;;;;;;;;;5107692;28;20505;-84
2023/01/30 14:08:53;;;;;;;28.52;6.85;;;;;;;;;;5137161;27;20427;-84
2023/01/30 14:11:29;;;;;;;33.53;7.07;;;;;;;;;;5092241;28;20410;-84
2023/01/30 14:14:06;;;;;;;30.00;6.80;;;;;;;;;;5119107;27;20459;-84
2023/01/30 14:16:46;;;;;;;29.92;7.13;;;;;;;;;;5116881;28;20508;-83
2023/01/30 14:19:27;;;;;;;32.65;6.35;;;;;;;;;;5113044;28;20442;-83
2023/01/30 14:21:58;;;;;;;30.05;6.65;;;;;;;;;;5098702;28;20414;-85
2023/01/30 14:24:24;;;;;;;26.50;6.07;;;;;;;;;;5104031;28;20408;-84
2023/01/30 14:26:50;;;;;;;29.42;5.72;;;;;;;;;;5098340;28;20416;-84
2023/01/30 14:29:35;;;;;;;29.37;6.37;;;;;;;;;;5114087;27;20427;-84
2023/01/30 14:32:01;;;;;;;28.38;6.18;;;;;;;;;;5123493;27;20447;-84
2023/01/30 14:34:37;;;;;;;29.42;6.20;;;;;;;;;;5123357;27;20520;-85
2023/01/30 14:37:23;;;;;;;28.07;5.83;;;;;;;;;;5114218;27;20879;-81
2023/01/30 14:39:51;;;;;;;27.90;6.20;;;;;;;;;;5125822;27;20476;-81
2023/01/30 14:42:25;;;;;;;26.63;6.40;;;;;;;;;;5102363;28;20476;-82